sensor_id;sensor_type;location;lat;lon;timestamp;P1;durP1;ratioP1;P2;durP2;ratioP2
27839;SDS011;15207;42.182;24.308;2023-06-22T00:01:52;12.10;;;8.65;;
27839;SDS011;15207;42.182;24.308;2023-06-22T00:04:18;11.17;;;8.10;;
27839;SDS011;15207;42.182;24.308;2023-06-22T00:06:43;14.15;;;9.40;;
27839;SDS011;15207;42.182;24.308;2023-06-22T00:09:09;12.80;;;9.20;;
27839;SDS011;15207;42.182;24.308;2023-06-22T00:11:35;11.90;;;8.60;;
27839;SDS011;15207;42.182;24.308;2023-06-22T00:14:02;13.05;;;8.32;;
27839;SDS011;15207;42.182;24.308;2023-06-22T00:16:29;11.20;;;8.15;;
27839;SDS011;15207;42.182;24.308;2023-06-22T00:18:54;11.50;;;8.60;;
27839;SDS011;15207;42.182;24.308;2023-06-22T00:21:20;16.40;;;7.90;;
27839;SDS011;15207;42.182;24.308;2023-06-22T00:23:46;12.70;;;8.80;;
27839;SDS011;15207;42.182;24.308;2023-06-22T00:26:12;16.10;;;9.30;;
27839;SDS011;15207;42.182;24.308;2023-06-22T00:28:38;13.40;;;9.27;;
27839;SDS011;15207;42.182;24.308;2023-06-22T00:31:04;13.38;;;8.63;;
27839;SDS011;15207;42.182;24.308;2023-06-22T00:33:30;15.90;;;9.70;;
27839;SDS011;15207;42.182;24.308;2023-06-22T00:35:56;12.90;;;8.80;;
27839;SDS011;15207;42.182;24.308;2023-06-22T00:38:22;13.25;;;8.60;;
27839;SDS011;15207;42.182;24.308;2023-06-22T00:40:48;15.20;;;9.10;;
27839;SDS011;15207;42.182;24.308;2023-06-22T00:43:13;12.80;;;8.90;;
27839;SDS011;15207;42.182;24.308;2023-06-22T00:45:39;16.10;;;9.68;;
27839;SDS011;15207;42.182;24.308;2023-06-22T00:48:05;16.87;;;9.40;;
27839;SDS011;15207;42.182;24.308;2023-06-22T00:50:32;16.97;;;9.00;;
27839;SDS011;15207;42.182;24.308;2023-06-22T00:53:03;15.50;;;9.35;;
27839;SDS011;15207;42.182;24.308;2023-06-22T00:55:34;14.55;;;8.80;;
27839;SDS011;15207;42.182;24.308;2023-06-22T00:58:04;15.17;;;9.27;;
27839;SDS011;15207;42.182;24.308;2023-06-22T01:00:35;14.70;;;9.30;;
27839;SDS011;15207;42.182;24.308;2023-06-22T01:03:02;11.23;;;8.23;;
27839;SDS011;15207;42.182;24.308;2023-06-22T01:05:28;11.80;;;8.40;;
27839;SDS011;15207;42.182;24.308;2023-06-22T01:08:04;12.10;;;8.90;;
27839;SDS011;15207;42.182;24.308;2023-06-22T01:10:41;13.90;;;8.80;;
27839;SDS011;15207;42.182;24.308;2023-06-22T01:18:57;13.80;;;9.17;;
27839;SDS011;15207;42.182;24.308;2023-06-22T01:21:32;12.70;;;8.90;;
27839;SDS011;15207;42.182;24.308;2023-06-22T01:29:01;15.20;;;10.00;;
27839;SDS011;15207;42.182;24.308;2023-06-22T01:31:29;13.75;;;9.40;;
27839;SDS011;15207;42.182;24.308;2023-06-22T01:34:02;14.40;;;9.25;;
27839;SDS011;15207;42.182;24.308;2023-06-22T01:36:30;12.30;;;8.70;;
27839;SDS011;15207;42.182;24.308;2023-06-22T01:41:26;14.40;;;9.50;;
27839;SDS011;15207;42.182;24.308;2023-06-22T01:43:55;13.45;;;9.05;;
27839;SDS011;15207;42.182;24.308;2023-06-22T01:46:22;13.10;;;8.77;;
27839;SDS011;15207;42.182;24.308;2023-06-22T01:48:49;13.40;;;8.45;;
27839;SDS011;15207;42.182;24.308;2023-06-22T01:51:15;11.80;;;8.70;;
27839;SDS011;15207;42.182;24.308;2023-06-22T01:53:41;10.45;;;8.25;;
27839;SDS011;15207;42.182;24.308;2023-06-22T01:58:33;13.35;;;8.90;;
27839;SDS011;15207;42.182;24.308;2023-06-22T02:01:01;13.18;;;8.45;;
27839;SDS011;15207;42.182;24.308;2023-06-22T02:03:34;10.75;;;7.50;;
27839;SDS011;15207;42.182;24.308;2023-06-22T02:06:42;13.90;;;7.95;;
27839;SDS011;15207;42.182;24.308;2023-06-22T02:09:02;12.60;;;8.95;;
27839;SDS011;15207;42.182;24.308;2023-06-22T02:11:34;13.70;;;8.90;;
27839;SDS011;15207;42.182;24.308;2023-06-22T02:14:01;14.60;;;9.10;;
27839;SDS011;15207;42.182;24.308;2023-06-22T02:16:27;14.75;;;9.88;;
27839;SDS011;15207;42.182;24.308;2023-06-22T02:18:55;14.38;;;9.35;;
27839;SDS011;15207;42.182;24.308;2023-06-22T02:21:27;11.55;;;8.55;;
27839;SDS011;15207;42.182;24.308;2023-06-22T02:23:52;11.70;;;8.00;;
27839;SDS011;15207;42.182;24.308;2023-06-22T02:26:18;13.25;;;9.20;;
27839;SDS011;15207;42.182;24.308;2023-06-22T02:28:43;12.40;;;8.50;;
27839;SDS011;15207;42.182;24.308;2023-06-22T02:31:11;11.40;;;8.50;;
27839;SDS011;15207;42.182;24.308;2023-06-22T02:33:39;12.05;;;7.80;;
27839;SDS011;15207;42.182;24.308;2023-06-22T02:36:09;11.30;;;7.80;;
27839;SDS011;15207;42.182;24.308;2023-06-22T02:38:41;13.30;;;8.60;;
27839;SDS011;15207;42.182;24.308;2023-06-22T02:41:15;14.40;;;8.40;;
27839;SDS011;15207;42.182;24.308;2023-06-22T02:43:45;16.35;;;9.35;;
27839;SDS011;15207;42.182;24.308;2023-06-22T02:46:11;19.10;;;9.10;;
27839;SDS011;15207;42.182;24.308;2023-06-22T02:48:38;15.25;;;9.75;;
27839;SDS011;15207;42.182;24.308;2023-06-22T02:51:07;14.80;;;8.70;;
27839;SDS011;15207;42.182;24.308;2023-06-22T02:53:33;15.20;;;9.60;;
27839;SDS011;15207;42.182;24.308;2023-06-22T02:55:59;15.20;;;8.85;;
27839;SDS011;15207;42.182;24.308;2023-06-22T02:58:30;17.45;;;9.30;;
27839;SDS011;15207;42.182;24.308;2023-06-22T03:01:03;15.80;;;9.40;;
27839;SDS011;15207;42.182;24.308;2023-06-22T03:03:31;12.60;;;8.90;;
27839;SDS011;15207;42.182;24.308;2023-06-22T03:05:57;18.20;;;9.63;;
27839;SDS011;15207;42.182;24.308;2023-06-22T03:08:23;13.50;;;8.70;;
27839;SDS011;15207;42.182;24.308;2023-06-22T03:10:48;16.17;;;8.48;;
27839;SDS011;15207;42.182;24.308;2023-06-22T03:13:14;13.93;;;8.82;;
27839;SDS011;15207;42.182;24.308;2023-06-22T03:15:40;13.25;;;8.95;;
27839;SDS011;15207;42.182;24.308;2023-06-22T03:18:06;16.00;;;9.85;;
27839;SDS011;15207;42.182;24.308;2023-06-22T03:20:31;17.50;;;10.50;;
27839;SDS011;15207;42.182;24.308;2023-06-22T03:22:58;19.20;;;10.00;;
27839;SDS011;15207;42.182;24.308;2023-06-22T03:25:25;12.50;;;9.10;;
27839;SDS011;15207;42.182;24.308;2023-06-22T03:27:50;15.90;;;9.10;;
27839;SDS011;15207;42.182;24.308;2023-06-22T03:30:16;12.05;;;8.05;;
27839;SDS011;15207;42.182;24.308;2023-06-22T03:35:08;12.80;;;8.95;;
27839;SDS011;15207;42.182;24.308;2023-06-22T03:37:34;14.25;;;9.50;;
27839;SDS011;15207;42.182;24.308;2023-06-22T03:40:00;17.20;;;9.90;;
27839;SDS011;15207;42.182;24.308;2023-06-22T03:42:26;15.25;;;9.00;;
27839;SDS011;15207;42.182;24.308;2023-06-22T03:44:52;12.70;;;8.80;;
27839;SDS011;15207;42.182;24.308;2023-06-22T03:47:18;14.20;;;9.00;;
27839;SDS011;15207;42.182;24.308;2023-06-22T03:49:44;12.40;;;9.00;;
27839;SDS011;15207;42.182;24.308;2023-06-22T03:52:09;15.75;;;9.05;;
27839;SDS011;15207;42.182;24.308;2023-06-22T03:54:36;14.80;;;8.20;;
27839;SDS011;15207;42.182;24.308;2023-06-22T03:57:02;16.35;;;8.60;;
27839;SDS011;15207;42.182;24.308;2023-06-22T03:59:27;14.20;;;8.80;;
27839;SDS011;15207;42.182;24.308;2023-06-22T04:01:53;14.30;;;9.00;;
27839;SDS011;15207;42.182;24.308;2023-06-22T04:04:19;16.70;;;10.23;;
27839;SDS011;15207;42.182;24.308;2023-06-22T04:06:45;15.13;;;9.23;;
27839;SDS011;15207;42.182;24.308;2023-06-22T04:09:11;15.65;;;9.55;;
27839;SDS011;15207;42.182;24.308;2023-06-22T04:11:37;13.53;;;9.73;;
27839;SDS011;15207;42.182;24.308;2023-06-22T04:16:29;16.13;;;10.53;;
27839;SDS011;15207;42.182;24.308;2023-06-22T04:18:54;16.17;;;9.48;;
27839;SDS011;15207;42.182;24.308;2023-06-22T04:21:20;17.05;;;10.25;;
27839;SDS011;15207;42.182;24.308;2023-06-22T04:23:46;14.70;;;9.60;;
27839;SDS011;15207;42.182;24.308;2023-06-22T04:26:12;13.35;;;9.65;;
27839;SDS011;15207;42.182;24.308;2023-06-22T04:28:39;15.60;;;10.10;;
27839;SDS011;15207;42.182;24.308;2023-06-22T04:31:06;15.20;;;9.10;;
27839;SDS011;15207;42.182;24.308;2023-06-22T04:33:31;17.10;;;9.30;;
27839;SDS011;15207;42.182;24.308;2023-06-22T04:35:57;14.60;;;8.30;;
27839;SDS011;15207;42.182;24.308;2023-06-22T04:38:26;12.40;;;8.20;;
27839;SDS011;15207;42.182;24.308;2023-06-22T04:40:51;10.50;;;7.90;;
27839;SDS011;15207;42.182;24.308;2023-06-22T04:43:18;11.50;;;8.30;;
27839;SDS011;15207;42.182;24.308;2023-06-22T04:48:10;12.60;;;8.20;;
27839;SDS011;15207;42.182;24.308;2023-06-22T04:50:41;15.80;;;8.60;;
27839;SDS011;15207;42.182;24.308;2023-06-22T04:53:07;11.55;;;8.35;;
27839;SDS011;15207;42.182;24.308;2023-06-22T04:55:38;10.73;;;7.75;;
27839;SDS011;15207;42.182;24.308;2023-06-22T04:58:06;9.10;;;6.60;;
27839;SDS011;15207;42.182;24.308;2023-06-22T05:00:32;10.60;;;7.07;;
27839;SDS011;15207;42.182;24.308;2023-06-22T05:03:01;11.95;;;7.05;;
27839;SDS011;15207;42.182;24.308;2023-06-22T05:05:28;9.45;;;6.60;;
27839;SDS011;15207;42.182;24.308;2023-06-22T05:07:56;12.00;;;8.20;;
27839;SDS011;15207;42.182;24.308;2023-06-22T05:10:25;9.60;;;7.00;;
27839;SDS011;15207;42.182;24.308;2023-06-22T05:12:51;11.55;;;7.10;;
27839;SDS011;15207;42.182;24.308;2023-06-22T05:15:16;10.70;;;7.10;;
27839;SDS011;15207;42.182;24.308;2023-06-22T05:17:44;10.90;;;7.47;;
27839;SDS011;15207;42.182;24.308;2023-06-22T05:20:11;9.82;;;7.05;;
27839;SDS011;15207;42.182;24.308;2023-06-22T05:22:39;9.20;;;6.63;;
27839;SDS011;15207;42.182;24.308;2023-06-22T05:25:07;13.27;;;7.10;;
27839;SDS011;15207;42.182;24.308;2023-06-22T05:27:34;9.25;;;6.95;;
27839;SDS011;15207;42.182;24.308;2023-06-22T05:30:05;10.10;;;6.50;;
27839;SDS011;15207;42.182;24.308;2023-06-22T05:32:32;9.32;;;7.10;;
27839;SDS011;15207;42.182;24.308;2023-06-22T05:34:58;9.55;;;6.70;;
27839;SDS011;15207;42.182;24.308;2023-06-22T05:37:25;8.80;;;6.70;;
27839;SDS011;15207;42.182;24.308;2023-06-22T05:39:51;8.70;;;6.80;;
27839;SDS011;15207;42.182;24.308;2023-06-22T05:42:17;9.35;;;6.97;;
27839;SDS011;15207;42.182;24.308;2023-06-22T05:44:43;11.67;;;7.03;;
27839;SDS011;15207;42.182;24.308;2023-06-22T05:47:09;9.55;;;7.35;;
27839;SDS011;15207;42.182;24.308;2023-06-22T05:49:35;9.25;;;7.10;;
27839;SDS011;15207;42.182;24.308;2023-06-22T05:52:01;11.90;;;7.80;;
27839;SDS011;15207;42.182;24.308;2023-06-22T05:56:54;8.40;;;5.85;;
27839;SDS011;15207;42.182;24.308;2023-06-22T05:59:20;10.40;;;6.90;;
27839;SDS011;15207;42.182;24.308;2023-06-22T06:01:47;12.90;;;6.20;;
27839;SDS011;15207;42.182;24.308;2023-06-22T06:04:18;12.35;;;5.78;;
27839;SDS011;15207;42.182;24.308;2023-06-22T06:09:09;8.05;;;5.70;;
27839;SDS011;15207;42.182;24.308;2023-06-22T06:11:37;10.90;;;5.55;;
27839;SDS011;15207;42.182;24.308;2023-06-22T06:14:03;9.70;;;5.80;;
27839;SDS011;15207;42.182;24.308;2023-06-22T06:16:29;11.03;;;6.03;;
27839;SDS011;15207;42.182;24.308;2023-06-22T06:18:55;8.50;;;5.40;;
27839;SDS011;15207;42.182;24.308;2023-06-22T06:21:22;8.65;;;5.60;;
27839;SDS011;15207;42.182;24.308;2023-06-22T06:23:48;10.55;;;6.30;;
27839;SDS011;15207;42.182;24.308;2023-06-22T06:26:14;9.18;;;5.97;;
27839;SDS011;15207;42.182;24.308;2023-06-22T06:28:42;8.30;;;5.57;;
27839;SDS011;15207;42.182;24.308;2023-06-22T06:31:09;11.35;;;6.07;;
27839;SDS011;15207;42.182;24.308;2023-06-22T06:33:35;9.48;;;5.82;;
27839;SDS011;15207;42.182;24.308;2023-06-22T06:36:01;10.60;;;5.90;;
27839;SDS011;15207;42.182;24.308;2023-06-22T06:38:29;6.85;;;5.57;;
27839;SDS011;15207;42.182;24.308;2023-06-22T06:40:58;8.80;;;5.93;;
27839;SDS011;15207;42.182;24.308;2023-06-22T06:43:24;13.63;;;8.95;;
27839;SDS011;15207;42.182;24.308;2023-06-22T06:45:51;7.97;;;5.72;;
27839;SDS011;15207;42.182;24.308;2023-06-22T06:48:16;11.85;;;6.32;;
27839;SDS011;15207;42.182;24.308;2023-06-22T06:50:42;8.68;;;5.80;;
27839;SDS011;15207;42.182;24.308;2023-06-22T06:53:09;5.88;;;4.53;;
27839;SDS011;15207;42.182;24.308;2023-06-22T06:55:35;7.72;;;5.13;;
27839;SDS011;15207;42.182;24.308;2023-06-22T06:58:01;7.50;;;4.70;;
27839;SDS011;15207;42.182;24.308;2023-06-22T07:00:29;11.45;;;4.80;;
27839;SDS011;15207;42.182;24.308;2023-06-22T07:02:55;6.28;;;4.07;;
27839;SDS011;15207;42.182;24.308;2023-06-22T07:05:20;7.72;;;4.40;;
27839;SDS011;15207;42.182;24.308;2023-06-22T07:07:46;6.38;;;4.60;;
27839;SDS011;15207;42.182;24.308;2023-06-22T07:10:12;6.22;;;4.45;;
27839;SDS011;15207;42.182;24.308;2023-06-22T07:12:38;6.43;;;4.93;;
27839;SDS011;15207;42.182;24.308;2023-06-22T07:15:07;5.78;;;4.53;;
27839;SDS011;15207;42.182;24.308;2023-06-22T07:17:34;7.53;;;4.53;;
27839;SDS011;15207;42.182;24.308;2023-06-22T07:20:01;7.57;;;4.65;;
27839;SDS011;15207;42.182;24.308;2023-06-22T07:22:35;7.65;;;4.63;;
27839;SDS011;15207;42.182;24.308;2023-06-22T07:25:02;5.68;;;4.60;;
27839;SDS011;15207;42.182;24.308;2023-06-22T07:27:34;5.43;;;4.15;;
27839;SDS011;15207;42.182;24.308;2023-06-22T07:30:05;4.75;;;4.25;;
27839;SDS011;15207;42.182;24.308;2023-06-22T07:32:32;5.88;;;4.00;;
27839;SDS011;15207;42.182;24.308;2023-06-22T07:34:58;7.25;;;4.50;;
27839;SDS011;15207;42.182;24.308;2023-06-22T07:37:24;5.30;;;4.28;;
27839;SDS011;15207;42.182;24.308;2023-06-22T07:39:52;4.65;;;4.05;;
27839;SDS011;15207;42.182;24.308;2023-06-22T07:42:20;7.43;;;3.90;;
27839;SDS011;15207;42.182;24.308;2023-06-22T07:44:46;4.90;;;3.97;;
27839;SDS011;15207;42.182;24.308;2023-06-22T07:47:12;5.55;;;4.53;;
27839;SDS011;15207;42.182;24.308;2023-06-22T07:49:37;4.72;;;3.72;;
27839;SDS011;15207;42.182;24.308;2023-06-22T07:52:03;6.57;;;4.10;;
27839;SDS011;15207;42.182;24.308;2023-06-22T07:54:30;6.90;;;4.25;;
27839;SDS011;15207;42.182;24.308;2023-06-22T07:56:55;7.03;;;4.15;;
27839;SDS011;15207;42.182;24.308;2023-06-22T07:59:21;7.07;;;4.00;;
27839;SDS011;15207;42.182;24.308;2023-06-22T08:01:47;5.45;;;4.00;;
27839;SDS011;15207;42.182;24.308;2023-06-22T08:04:14;7.88;;;3.95;;
27839;SDS011;15207;42.182;24.308;2023-06-22T08:06:40;4.82;;;3.75;;
27839;SDS011;15207;42.182;24.308;2023-06-22T08:09:06;6.20;;;3.65;;
27839;SDS011;15207;42.182;24.308;2023-06-22T08:11:32;3.88;;;3.50;;
27839;SDS011;15207;42.182;24.308;2023-06-22T08:13:59;8.43;;;4.20;;
27839;SDS011;15207;42.182;24.308;2023-06-22T08:16:24;3.95;;;3.42;;
27839;SDS011;15207;42.182;24.308;2023-06-22T08:18:51;4.80;;;4.00;;
27839;SDS011;15207;42.182;24.308;2023-06-22T08:21:18;6.07;;;3.90;;
27839;SDS011;15207;42.182;24.308;2023-06-22T08:23:44;6.53;;;3.67;;
27839;SDS011;15207;42.182;24.308;2023-06-22T08:26:10;5.38;;;4.03;;
27839;SDS011;15207;42.182;24.308;2023-06-22T08:28:36;6.60;;;4.07;;
27839;SDS011;15207;42.182;24.308;2023-06-22T08:31:02;5.55;;;3.65;;
27839;SDS011;15207;42.182;24.308;2023-06-22T08:33:28;8.73;;;4.60;;
27839;SDS011;15207;42.182;24.308;2023-06-22T08:35:55;6.20;;;3.83;;
27839;SDS011;15207;42.182;24.308;2023-06-22T08:38:22;5.90;;;3.42;;
27839;SDS011;15207;42.182;24.308;2023-06-22T08:40:48;5.10;;;3.97;;
27839;SDS011;15207;42.182;24.308;2023-06-22T08:43:14;5.53;;;3.67;;
27839;SDS011;15207;42.182;24.308;2023-06-22T08:45:39;4.47;;;3.78;;
27839;SDS011;15207;42.182;24.308;2023-06-22T08:48:05;4.50;;;3.33;;
27839;SDS011;15207;42.182;24.308;2023-06-22T08:50:31;6.30;;;3.63;;
27839;SDS011;15207;42.182;24.308;2023-06-22T08:52:57;7.10;;;3.70;;
27839;SDS011;15207;42.182;24.308;2023-06-22T08:55:23;4.05;;;3.22;;
27839;SDS011;15207;42.182;24.308;2023-06-22T08:57:49;5.88;;;3.88;;
27839;SDS011;15207;42.182;24.308;2023-06-22T09:00:14;4.60;;;3.22;;
27839;SDS011;15207;42.182;24.308;2023-06-22T09:02:45;5.13;;;3.47;;
27839;SDS011;15207;42.182;24.308;2023-06-22T09:05:12;4.53;;;3.08;;
27839;SDS011;15207;42.182;24.308;2023-06-22T09:07:39;5.40;;;3.20;;
27839;SDS011;15207;42.182;24.308;2023-06-22T09:10:05;3.65;;;2.80;;
27839;SDS011;15207;42.182;24.308;2023-06-22T09:12:32;4.97;;;3.00;;
27839;SDS011;15207;42.182;24.308;2023-06-22T09:14:59;3.17;;;2.80;;
27839;SDS011;15207;42.182;24.308;2023-06-22T09:17:25;2.83;;;2.60;;
27839;SDS011;15207;42.182;24.308;2023-06-22T09:19:51;4.07;;;2.92;;
27839;SDS011;15207;42.182;24.308;2023-06-22T09:22:17;4.03;;;3.08;;
27839;SDS011;15207;42.182;24.308;2023-06-22T09:24:43;4.60;;;2.90;;
27839;SDS011;15207;42.182;24.308;2023-06-22T09:27:09;5.72;;;3.10;;
27839;SDS011;15207;42.182;24.308;2023-06-22T09:29:34;3.72;;;3.13;;
27839;SDS011;15207;42.182;24.308;2023-06-22T09:32:00;3.63;;;2.88;;
27839;SDS011;15207;42.182;24.308;2023-06-22T09:34:27;4.38;;;3.03;;
27839;SDS011;15207;42.182;24.308;2023-06-22T09:36:53;4.22;;;3.15;;
27839;SDS011;15207;42.182;24.308;2023-06-22T09:39:20;3.58;;;2.88;;
27839;SDS011;15207;42.182;24.308;2023-06-22T09:41:46;7.82;;;4.00;;
27839;SDS011;15207;42.182;24.308;2023-06-22T09:44:12;6.22;;;3.40;;
27839;SDS011;15207;42.182;24.308;2023-06-22T09:46:37;5.07;;;3.80;;
27839;SDS011;15207;42.182;24.308;2023-06-22T09:49:03;4.93;;;3.57;;
27839;SDS011;15207;42.182;24.308;2023-06-22T09:51:29;4.93;;;3.53;;
27839;SDS011;15207;42.182;24.308;2023-06-22T09:53:55;3.85;;;3.30;;
27839;SDS011;15207;42.182;24.308;2023-06-22T09:56:21;5.32;;;3.38;;
27839;SDS011;15207;42.182;24.308;2023-06-22T09:58:47;6.68;;;3.85;;
27839;SDS011;15207;42.182;24.308;2023-06-22T10:01:15;4.07;;;3.60;;
27839;SDS011;15207;42.182;24.308;2023-06-22T10:03:41;7.13;;;3.83;;
27839;SDS011;15207;42.182;24.308;2023-06-22T10:06:07;4.18;;;3.58;;
27839;SDS011;15207;42.182;24.308;2023-06-22T10:08:36;7.10;;;3.75;;
27839;SDS011;15207;42.182;24.308;2023-06-22T10:11:03;5.10;;;3.95;;
27839;SDS011;15207;42.182;24.308;2023-06-22T10:13:29;4.22;;;3.40;;
27839;SDS011;15207;42.182;24.308;2023-06-22T10:15:55;5.65;;;3.60;;
27839;SDS011;15207;42.182;24.308;2023-06-22T10:18:22;5.40;;;4.00;;
27839;SDS011;15207;42.182;24.308;2023-06-22T10:20:48;5.22;;;3.90;;
27839;SDS011;15207;42.182;24.308;2023-06-22T10:23:18;7.10;;;3.95;;
27839;SDS011;15207;42.182;24.308;2023-06-22T10:25:45;4.93;;;4.03;;
27839;SDS011;15207;42.182;24.308;2023-06-22T10:28:12;4.88;;;3.88;;
27839;SDS011;15207;42.182;24.308;2023-06-22T10:30:41;5.25;;;3.65;;
27839;SDS011;15207;42.182;24.308;2023-06-22T10:33:08;7.72;;;3.60;;
27839;SDS011;15207;42.182;24.308;2023-06-22T10:35:34;5.82;;;3.95;;
27839;SDS011;15207;42.182;24.308;2023-06-22T10:38:02;5.40;;;3.72;;
27839;SDS011;15207;42.182;24.308;2023-06-22T10:40:29;5.75;;;4.05;;
27839;SDS011;15207;42.182;24.308;2023-06-22T10:42:55;5.50;;;3.75;;
27839;SDS011;15207;42.182;24.308;2023-06-22T10:45:22;4.25;;;3.70;;
27839;SDS011;15207;42.182;24.308;2023-06-22T10:47:51;4.90;;;4.07;;
27839;SDS011;15207;42.182;24.308;2023-06-22T10:50:17;5.97;;;4.00;;
27839;SDS011;15207;42.182;24.308;2023-06-22T10:52:45;4.22;;;3.55;;
27839;SDS011;15207;42.182;24.308;2023-06-22T10:55:13;4.23;;;3.73;;
27839;SDS011;15207;42.182;24.308;2023-06-22T10:57:39;7.90;;;4.38;;
27839;SDS011;15207;42.182;24.308;2023-06-22T11:00:13;5.80;;;4.30;;
27839;SDS011;15207;42.182;24.308;2023-06-22T11:02:41;5.38;;;3.75;;
27839;SDS011;15207;42.182;24.308;2023-06-22T11:05:07;5.55;;;3.72;;
27839;SDS011;15207;42.182;24.308;2023-06-22T11:07:34;4.30;;;3.60;;
27839;SDS011;15207;42.182;24.308;2023-06-22T11:09:59;4.80;;;3.72;;
27839;SDS011;15207;42.182;24.308;2023-06-22T11:12:25;4.88;;;3.92;;
27839;SDS011;15207;42.182;24.308;2023-06-22T11:14:51;4.80;;;3.72;;
27839;SDS011;15207;42.182;24.308;2023-06-22T11:17:17;6.75;;;4.22;;
27839;SDS011;15207;42.182;24.308;2023-06-22T11:19:44;4.22;;;3.83;;
27839;SDS011;15207;42.182;24.308;2023-06-22T11:22:10;4.75;;;3.72;;
27839;SDS011;15207;42.182;24.308;2023-06-22T11:24:36;5.15;;;4.10;;
27839;SDS011;15207;42.182;24.308;2023-06-22T11:27:03;6.40;;;4.30;;
27839;SDS011;15207;42.182;24.308;2023-06-22T11:29:30;8.10;;;4.22;;
27839;SDS011;15207;42.182;24.308;2023-06-22T11:31:56;6.22;;;4.55;;
27839;SDS011;15207;42.182;24.308;2023-06-22T11:34:21;6.50;;;4.45;;
27839;SDS011;15207;42.182;24.308;2023-06-22T11:36:47;5.07;;;3.90;;
27839;SDS011;15207;42.182;24.308;2023-06-22T11:39:13;6.32;;;4.18;;
27839;SDS011;15207;42.182;24.308;2023-06-22T11:41:40;5.32;;;4.18;;
27839;SDS011;15207;42.182;24.308;2023-06-22T11:44:07;5.30;;;4.25;;
27839;SDS011;15207;42.182;24.308;2023-06-22T11:46:33;5.18;;;4.03;;
27839;SDS011;15207;42.182;24.308;2023-06-22T11:49:00;5.95;;;4.10;;
27839;SDS011;15207;42.182;24.308;2023-06-22T11:51:26;5.57;;;4.20;;
27839;SDS011;15207;42.182;24.308;2023-06-22T11:53:52;6.28;;;4.15;;
27839;SDS011;15207;42.182;24.308;2023-06-22T11:56:18;8.02;;;4.25;;
27839;SDS011;15207;42.182;24.308;2023-06-22T11:58:44;4.97;;;4.10;;
27839;SDS011;15207;42.182;24.308;2023-06-22T12:01:10;4.93;;;4.00;;
27839;SDS011;15207;42.182;24.308;2023-06-22T12:03:40;9.43;;;4.80;;
27839;SDS011;15207;42.182;24.308;2023-06-22T12:06:08;16.67;;;5.50;;
27839;SDS011;15207;42.182;24.308;2023-06-22T12:08:35;12.23;;;4.90;;
27839;SDS011;15207;42.182;24.308;2023-06-22T12:11:01;6.05;;;4.32;;
27839;SDS011;15207;42.182;24.308;2023-06-22T12:13:28;6.57;;;4.60;;
27839;SDS011;15207;42.182;24.308;2023-06-22T12:15:54;7.50;;;4.43;;
27839;SDS011;15207;42.182;24.308;2023-06-22T12:18:20;13.07;;;5.80;;
27839;SDS011;15207;42.182;24.308;2023-06-22T12:20:46;10.38;;;5.72;;
27839;SDS011;15207;42.182;24.308;2023-06-22T12:23:12;11.93;;;5.57;;
27839;SDS011;15207;42.182;24.308;2023-06-22T12:25:40;12.52;;;6.05;;
27839;SDS011;15207;42.182;24.308;2023-06-22T12:28:06;14.20;;;8.85;;
27839;SDS011;15207;42.182;24.308;2023-06-22T12:30:32;17.70;;;8.43;;
27839;SDS011;15207;42.182;24.308;2023-06-22T12:32:59;13.88;;;7.70;;
27839;SDS011;15207;42.182;24.308;2023-06-22T12:35:25;15.40;;;7.38;;
27839;SDS011;15207;42.182;24.308;2023-06-22T12:37:51;14.52;;;7.95;;
27839;SDS011;15207;42.182;24.308;2023-06-22T12:40:17;16.45;;;8.73;;
27839;SDS011;15207;42.182;24.308;2023-06-22T12:42:44;15.40;;;8.40;;
27839;SDS011;15207;42.182;24.308;2023-06-22T12:45:10;8.60;;;6.00;;
27839;SDS011;15207;42.182;24.308;2023-06-22T12:47:36;10.85;;;6.60;;
27839;SDS011;15207;42.182;24.308;2023-06-22T12:50:02;10.67;;;6.10;;
27839;SDS011;15207;42.182;24.308;2023-06-22T12:52:30;8.45;;;6.70;;
27839;SDS011;15207;42.182;24.308;2023-06-22T12:57:23;9.10;;;6.00;;
27839;SDS011;15207;42.182;24.308;2023-06-22T12:59:49;8.20;;;5.78;;
27839;SDS011;15207;42.182;24.308;2023-06-22T13:02:14;11.10;;;6.30;;
27839;SDS011;15207;42.182;24.308;2023-06-22T13:04:41;9.60;;;6.00;;
27839;SDS011;15207;42.182;24.308;2023-06-22T13:07:08;6.90;;;5.45;;
27839;SDS011;15207;42.182;24.308;2023-06-22T13:09:35;5.97;;;4.93;;
27839;SDS011;15207;42.182;24.308;2023-06-22T13:12:01;12.80;;;6.50;;
27839;SDS011;15207;42.182;24.308;2023-06-22T13:14:27;8.63;;;6.20;;
27839;SDS011;15207;42.182;24.308;2023-06-22T13:16:53;8.40;;;6.00;;
27839;SDS011;15207;42.182;24.308;2023-06-22T13:19:18;8.40;;;6.10;;
27839;SDS011;15207;42.182;24.308;2023-06-22T13:21:44;5.50;;;4.70;;
27839;SDS011;15207;42.182;24.308;2023-06-22T13:24:11;7.40;;;4.93;;
27839;SDS011;15207;42.182;24.308;2023-06-22T13:26:36;9.30;;;5.35;;
27839;SDS011;15207;42.182;24.308;2023-06-22T13:29:02;7.78;;;5.30;;
27839;SDS011;15207;42.182;24.308;2023-06-22T13:31:28;8.35;;;5.80;;
27839;SDS011;15207;42.182;24.308;2023-06-22T13:33:53;6.90;;;5.20;;
27839;SDS011;15207;42.182;24.308;2023-06-22T13:36:19;8.00;;;5.15;;
27839;SDS011;15207;42.182;24.308;2023-06-22T13:38:44;6.87;;;5.37;;
27839;SDS011;15207;42.182;24.308;2023-06-22T13:41:10;6.60;;;5.60;;
27839;SDS011;15207;42.182;24.308;2023-06-22T13:43:36;12.10;;;6.10;;
27839;SDS011;15207;42.182;24.308;2023-06-22T13:46:02;8.00;;;6.10;;
27839;SDS011;15207;42.182;24.308;2023-06-22T13:50:53;8.23;;;5.43;;
27839;SDS011;15207;42.182;24.308;2023-06-22T13:53:19;6.77;;;5.47;;
27839;SDS011;15207;42.182;24.308;2023-06-22T13:55:45;6.25;;;4.90;;
27839;SDS011;15207;42.182;24.308;2023-06-22T13:58:12;7.40;;;5.10;;
27839;SDS011;15207;42.182;24.308;2023-06-22T14:03:05;5.80;;;4.50;;
27839;SDS011;15207;42.182;24.308;2023-06-22T14:05:30;7.55;;;5.20;;
27839;SDS011;15207;42.182;24.308;2023-06-22T14:07:56;6.33;;;4.57;;
27839;SDS011;15207;42.182;24.308;2023-06-22T14:10:22;7.53;;;4.67;;
27839;SDS011;15207;42.182;24.308;2023-06-22T14:12:48;6.28;;;4.63;;
27839;SDS011;15207;42.182;24.308;2023-06-22T14:15:13;7.17;;;5.60;;
27839;SDS011;15207;42.182;24.308;2023-06-22T14:17:39;6.65;;;5.35;;
27839;SDS011;15207;42.182;24.308;2023-06-22T14:20:05;10.05;;;5.70;;
27839;SDS011;15207;42.182;24.308;2023-06-22T14:22:33;14.40;;;6.60;;
27839;SDS011;15207;42.182;24.308;2023-06-22T14:25:00;9.95;;;5.60;;
27839;SDS011;15207;42.182;24.308;2023-06-22T14:27:27;8.13;;;6.20;;
27839;SDS011;15207;42.182;24.308;2023-06-22T14:29:53;10.10;;;5.90;;
27839;SDS011;15207;42.182;24.308;2023-06-22T14:32:18;9.10;;;6.60;;
27839;SDS011;15207;42.182;24.308;2023-06-22T14:34:44;9.20;;;6.30;;
27839;SDS011;15207;42.182;24.308;2023-06-22T14:37:09;11.10;;;7.00;;
27839;SDS011;15207;42.182;24.308;2023-06-22T14:39:35;11.30;;;7.30;;
27839;SDS011;15207;42.182;24.308;2023-06-22T14:42:01;10.40;;;6.90;;
27839;SDS011;15207;42.182;24.308;2023-06-22T14:44:28;9.68;;;6.68;;
27839;SDS011;15207;42.182;24.308;2023-06-22T14:46:54;11.98;;;7.35;;
27839;SDS011;15207;42.182;24.308;2023-06-22T14:49:20;9.65;;;7.25;;
27839;SDS011;15207;42.182;24.308;2023-06-22T14:51:46;13.60;;;8.00;;
27839;SDS011;15207;42.182;24.308;2023-06-22T14:54:12;10.60;;;7.90;;
27839;SDS011;15207;42.182;24.308;2023-06-22T14:56:37;15.73;;;8.20;;
27839;SDS011;15207;42.182;24.308;2023-06-22T14:59:04;9.90;;;7.30;;
27839;SDS011;15207;42.182;24.308;2023-06-22T15:01:30;14.70;;;7.80;;